Time;durP1;ratioP1;P1;durP2;ratioP2;P2;SDS_P1;SDS_P2;PMS_P1;PMS_P2;Temp;Humidity;BMP_temperature;BMP_pressure;BME280_temperature;BME280_humidity;BME280_pressure;Samples;Min_cycle;Max_cycle;Signal;HPM_P1;HPM_P2
2021/04/22 00:01:14;;;;;;;33.22;21.23;;;;;;;10.32;72.22;100142.75;5098498;28;20028;-70
2021/04/22 00:03:40;;;;;;;30.08;21.48;;;;;;;10.06;72.69;100114.16;5098725;28;20483;-70
2021/04/22 00:06:05;;;;;;;29.30;20.55;;;;;;;10.12;73.02;100134.22;5098041;28;20055;-70
2021/04/22 00:08:31;;;;;;;33.08;21.90;;;;;;;10.02;73.79;100132.13;5098522;28;20031;-70
2021/04/22 00:10:57;;;;;;;31.83;20.98;;;;;;;10.10;73.48;100158.31;5116487;28;20110;-69
2021/04/22 00:13:25;;;;;;;31.15;21.40;;;;;;;9.69;73.80;100086.19;5116700;28;20096;-69
2021/04/22 00:15:53;;;;;;;32.78;21.33;;;;;;;9.95;74.20;100124.59;5116384;28;20142;-69
2021/04/22 00:18:19;;;;;;;35.03;21.38;;;;;;;10.17;73.79;100135.69;5098827;28;20464;-68
2021/04/22 00:20:44;;;;;;;30.17;21.02;;;;;;;10.19;72.92;100120.44;5098571;28;20464;-70
2021/04/22 00:23:12;;;;;;;32.42;21.70;;;;;;;9.97;72.93;100091.56;5116237;28;20039;-70
2021/04/22 00:25:41;;;;;;;31.70;21.90;;;;;;;10.30;72.80;100135.81;5116130;28;20430;-70
2021/04/22 00:28:06;;;;;;;33.42;22.08;;;;;;;10.22;73.39;100140.75;5098469;28;20044;-70
2021/04/22 00:30:33;;;;;;;33.33;22.48;;;;;;;10.23;73.26;100147.78;5116070;28;20404;-70
2021/04/22 00:32:59;;;;;;;30.88;21.45;;;;;;;10.26;73.15;100144.97;5097861;28;20437;-70
2021/04/22 00:35:24;;;;;;;30.70;21.38;;;;;;;10.23;73.37;100139.78;5098078;28;20035;-67
2021/04/22 00:37:50;;;;;;;30.35;21.40;;;;;;;10.21;73.82;100139.88;5098050;28;20503;-67
2021/04/22 00:40:23;;;;;;;33.75;22.48;;;;;;;10.21;73.38;100141.66;5115938;28;20050;-67
2021/04/22 00:42:49;;;;;;;33.95;22.02;;;;;;;10.09;73.77;100119.28;5116114;28;20027;-67
2021/04/22 00:45:16;;;;;;;31.35;21.15;;;;;;;10.26;73.75;100145.81;5097240;28;20040;-67
2021/04/22 00:47:42;;;;;;;31.42;22.55;;;;;;;10.18;74.03;100137.38;5080945;28;20028;-67
2021/04/22 00:50:13;;;;;;;33.90;22.77;;;;;;;10.23;73.97;100143.34;5097395;28;20034;-69
2021/04/22 00:52:39;;;;;;;35.17;23.05;;;;;;;10.13;74.61;100138.59;5116042;28;20031;-69
2021/04/22 00:55:05;;;;;;;33.90;23.33;;;;;;;10.19;74.59;100127.59;5097262;28;20027;-69
2021/04/22 00:57:31;;;;;;;32.42;22.83;;;;;;;10.21;74.69;100126.53;5097578;28;20032;-67
2021/04/22 00:59:56;;;;;;;30.75;22.05;;;;;;;10.25;73.94;100138.78;5080581;28;20406;-69
2021/04/22 01:02:21;;;;;;;30.40;21.70;;;;;;;10.31;73.62;100127.72;5097866;28;20108;-69
2021/04/22 01:04:48;;;;;;;31.60;21.20;;;;;;;10.28;73.80;100132.41;5097448;28;20472;-67
2021/04/22 01:07:15;;;;;;;33.72;21.85;;;;;;;10.13;73.99;100102.16;5115680;28;20040;-68
2021/04/22 01:09:41;;;;;;;30.70;21.10;;;;;;;10.12;73.73;100111.09;5097559;28;20031;-69
2021/04/22 01:12:08;;;;;;;29.40;21.70;;;;;;;10.24;73.61;100131.72;5097001;28;20096;-69
2021/04/22 01:14:34;;;;;;;29.33;21.13;;;;;;;10.33;73.44;100130.31;5080437;28;20504;-69
2021/04/22 01:17:00;;;;;;;30.02;21.42;;;;;;;10.22;73.80;100125.63;5115126;28;20052;-71
2021/04/22 01:19:25;;;;;;;32.15;22.65;;;;;;;10.16;73.68;100125.97;5115392;28;20036;-72
2021/04/22 01:21:52;;;;;;;30.80;21.80;;;;;;;10.15;73.97;100121.59;5097001;28;20473;-69
2021/04/22 01:24:18;;;;;;;32.28;22.15;;;;;;;9.93;73.97;100078.50;5114963;28;20084;-70
2021/04/22 01:26:44;;;;;;;32.25;22.55;;;;;;;10.23;73.78;100130.03;5114970;28;20564;-70
2021/04/22 01:29:09;;;;;;;33.40;22.10;;;;;;;10.29;73.70;100136.78;5079845;28;20114;-70
2021/04/22 01:31:35;;;;;;;33.58;22.45;;;;;;;10.26;73.30;100124.50;5115171;28;20488;-70
2021/04/22 01:34:06;;;;;;;31.17;21.42;;;;;;;10.21;72.92;100094.53;5096661;28;20037;-70
2021/04/22 01:36:37;;;;;;;32.53;22.20;;;;;;;10.34;72.96;100117.84;5097248;28;20020;-70
2021/04/22 01:39:05;;;;;;;30.60;21.70;;;;;;;10.23;72.49;100103.38;5114700;28;20411;-69
2021/04/22 01:41:30;;;;;;;28.92;21.15;;;;;;;10.50;73.77;100086.59;5096733;28;20040;-69
2021/04/22 01:43:56;;;;;;;33.22;22.85;;;;;;;10.42;73.95;100102.22;5114862;28;20357;-75
2021/04/22 01:46:24;;;;;;;30.83;21.60;;;;;;;10.34;74.13;100113.38;5114435;28;20040;-69
2021/04/22 01:48:49;;;;;;;31.42;22.30;;;;;;;10.30;75.12;100123.34;5096570;28;20080;-68
2021/04/22 01:51:15;;;;;;;29.27;21.08;;;;;;;10.25;74.87;100106.78;5096513;28;20426;-68
2021/04/22 01:53:41;;;;;;;34.38;22.50;;;;;;;10.16;75.67;100120.63;5114616;28;20036;-69
2021/04/22 01:56:06;;;;;;;33.03;21.55;;;;;;;10.02;76.32;100116.13;5114122;28;20079;-68
2021/04/22 01:58:32;;;;;;;28.90;20.63;;;;;;;9.90;76.32;100078.72;5096279;28;20392;-68
2021/04/22 02:00:59;;;;;;;31.75;22.05;;;;;;;9.99;76.08;100107.47;5114287;28;20395;-73
2021/04/22 02:03:27;;;;;;;30.73;21.67;;;;;;;9.83;76.37;100104.00;5096450;28;20137;-69
2021/04/22 02:05:53;;;;;;;28.00;19.73;;;;;;;9.68;75.95;100090.66;5096271;28;20531;-68
2021/04/22 02:08:18;;;;;;;24.65;18.27;;;;;;;9.67;75.94;100090.75;5096054;28;20114;-69
2021/04/22 02:10:45;;;;;;;24.13;17.77;;;;;;;9.66;75.18;100091.69;5113963;28;20133;-70
2021/04/22 02:13:12;;;;;;;24.38;17.63;;;;;;;9.80;74.51;100121.03;5114041;28;20038;-68
2021/04/22 02:15:39;;;;;;;22.15;16.10;;;;;;;9.83;73.72;100115.50;5113950;28;20150;-67
2021/04/22 02:18:04;;;;;;;21.27;16.20;;;;;;;9.87;73.15;100116.19;5095953;28;20027;-69
2021/04/22 02:20:30;;;;;;;24.17;17.50;;;;;;;9.46;73.45;100058.25;5096185;28;20031;-70
2021/04/22 02:22:56;;;;;;;25.13;16.58;;;;;;;9.81;73.78;100114.75;5095981;28;20068;-69
2021/04/22 02:25:24;;;;;;;27.13;17.90;;;;;;;9.64;73.89;100081.09;5095718;28;20036;-70
2021/04/22 02:27:51;;;;;;;26.13;17.77;;;;;;;9.74;73.94;100100.91;5095994;28;20534;-70
2021/04/22 02:30:23;;;;;;;28.58;18.63;;;;;;;9.53;74.19;100064.91;5113831;28;20023;-70
2021/04/22 02:32:49;;;;;;;27.52;18.58;;;;;;;9.75;74.28;100105.31;5114182;28;20146;-70
2021/04/22 02:35:19;;;;;;;26.67;18.83;;;;;;;9.78;74.68;100100.75;5113620;28;20042;-70
2021/04/22 02:37:46;;;;;;;27.50;18.25;;;;;;;9.63;74.60;100074.06;5095640;28;20042;-72
2021/04/22 02:40:15;;;;;;;26.48;18.48;;;;;;;9.67;74.57;100078.28;5095620;28;20027;-72
2021/04/22 02:42:41;;;;;;;26.33;17.92;;;;;;;9.75;74.54;100108.00;5095802;28;20097;-72
2021/04/22 02:45:10;;;;;;;26.52;18.20;;;;;;;9.68;74.75;100084.47;5113464;28;20070;-72
2021/04/22 02:47:36;;;;;;;24.77;17.90;;;;;;;9.69;74.77;100075.53;5113833;28;20089;-71
2021/04/22 02:50:05;;;;;;;28.17;18.38;;;;;;;9.72;74.77;100094.84;5113305;28;20028;-74
2021/04/22 02:52:30;;;;;;;27.15;18.23;;;;;;;9.60;75.11;100079.59;5096103;28;20035;-71
2021/04/22 02:54:56;;;;;;;24.67;18.17;;;;;;;9.71;74.81;100095.78;5113736;28;20104;-72
2021/04/22 02:57:21;;;;;;;23.13;16.00;;;;;;;9.69;74.25;100091.50;5095047;28;20115;-71
2021/04/22 02:59:47;;;;;;;26.33;17.58;;;;;;;9.73;74.34;100096.53;5095477;28;20036;-71
2021/04/22 03:02:12;;;;;;;23.13;16.83;;;;;;;9.64;74.45;100086.44;5113086;28;20028;-73
2021/04/22 03:04:38;;;;;;;26.02;16.90;;;;;;;9.65;74.59;100085.50;5113733;28;20032;-73
2021/04/22 03:07:03;;;;;;;25.27;17.10;;;;;;;9.64;74.64;100086.44;5113334;28;20032;-74
2021/04/22 03:09:29;;;;;;;23.95;16.77;;;;;;;9.68;74.23;100085.31;5095293;28;20059;-70
2021/04/22 03:11:54;;;;;;;24.58;17.17;;;;;;;9.63;74.47;100092.72;5113192;28;20365;-69
2021/04/22 03:14:20;;;;;;;25.67;16.40;;;;;;;9.57;74.71;100098.41;5078279;28;20070;-70
2021/04/22 03:16:45;;;;;;;26.13;17.77;;;;;;;9.54;74.83;100097.72;5095260;28;20063;-70
2021/04/22 03:19:10;;;;;;;24.75;16.88;;;;;;;9.37;75.63;100075.63;5113155;28;20079;-71
2021/04/22 03:21:36;;;;;;;25.85;16.65;;;;;;;9.34;75.88;100083.75;5078383;28;20088;-69
2021/04/22 03:24:02;;;;;;;29.95;18.08;;;;;;;9.41;76.16;100109.09;5116871;28;20031;-75
2021/04/22 03:26:27;;;;;;;27.90;17.10;;;;;;;9.38;76.11;100114.59;5117486;28;20118;-71
2021/04/22 03:28:53;;;;;;;26.30;17.95;;;;;;;9.33;76.33;100107.81;5117724;28;20028;-70
2021/04/22 03:31:18;;;;;;;24.48;16.42;;;;;;;9.28;76.37;100096.59;5098863;28;20126;-69
2021/04/22 03:33:44;;;;;;;24.52;17.50;;;;;;;9.33;76.63;100105.16;5117541;28;20031;-69
2021/04/22 03:36:10;;;;;;;25.42;17.70;;;;;;;9.15;76.68;100085.75;5098989;28;20032;-70
2021/04/22 03:38:35;;;;;;;24.73;17.70;;;;;;;9.26;76.97;100095.78;5099084;28;20037;-70
2021/04/22 03:41:01;;;;;;;24.45;16.48;;;;;;;9.20;76.94;100104.13;5099224;28;20092;-69
2021/04/22 03:43:26;;;;;;;26.20;17.65;;;;;;;9.31;76.34;100117.69;5117008;28;20035;-68
2021/04/22 03:45:52;;;;;;;26.20;17.73;;;;;;;9.28;77.02;100123.19;5117048;28;20357;-69
2021/04/22 03:48:17;;;;;;;27.63;17.48;;;;;;;9.00;77.13;100082.19;5098703;28;20040;-69
2021/04/22 03:50:43;;;;;;;24.42;16.58;;;;;;;9.20;76.94;100125.44;5099107;28;20112;-70
2021/04/22 03:53:08;;;;;;;25.05;17.88;;;;;;;9.11;77.54;100127.66;5116621;28;20063;-69
2021/04/22 03:55:34;;;;;;;25.77;17.70;;;;;;;9.02;77.21;100106.03;5116932;28;20036;-68
2021/04/22 03:57:59;;;;;;;25.95;17.60;;;;;;;9.19;77.34;100127.22;5117090;28;20452;-70
2021/04/22 04:00:25;;;;;;;29.00;18.58;;;;;;;9.16;77.48;100128.25;5098456;28;20092;-69
2021/04/22 04:02:51;;;;;;;23.90;17.35;;;;;;;9.21;77.31;100127.13;5098794;28;20032;-69
2021/04/22 04:05:17;;;;;;;26.65;17.48;;;;;;;9.16;77.01;100125.56;5116445;28;20035;-69
2021/04/22 04:07:43;;;;;;;26.58;17.85;;;;;;;9.20;77.12;100126.28;5098527;28;20032;-68
2021/04/22 04:10:09;;;;;;;27.70;18.27;;;;;;;9.09;76.90;100102.09;5116474;28;20031;-68
2021/04/22 04:12:35;;;;;;;27.67;18.20;;;;;;;9.07;77.64;100118.16;5116776;28;20115;-69
2021/04/22 04:15:02;;;;;;;26.23;17.67;;;;;;;9.20;77.06;100120.09;5081258;28;20114;-69
2021/04/22 04:17:27;;;;;;;28.83;18.02;;;;;;;9.32;76.75;100120.25;5115430;28;20507;-69
2021/04/22 04:19:52;;;;;;;26.15;17.17;;;;;;;9.46;76.34;100114.16;5115619;28;20051;-67
2021/04/22 04:22:18;;;;;;;27.73;18.08;;;;;;;9.34;75.84;100112.19;5097112;28;20052;-68
2021/04/22 04:24:44;;;;;;;26.58;17.63;;;;;;;9.88;74.62;100139.22;5115052;28;20031;-68
2021/04/22 04:27:09;;;;;;;26.77;17.42;;;;;;;10.32;72.82;100144.56;5114526;28;20531;-68
2021/04/22 04:29:35;;;;;;;26.67;18.65;;;;;;;9.90;73.62;100146.16;5115188;28;20027;-68
2021/04/22 04:32:00;;;;;;;26.27;17.63;;;;;;;9.77;73.84;100115.03;5079962;28;20126;-71
2021/04/22 04:34:26;;;;;;;24.48;16.70;;;;;;;10.11;73.64;100146.69;5095870;28;20220;-72
2021/04/22 04:36:51;;;;;;;27.08;17.42;;;;;;;10.24;72.43;100141.53;5097027;28;20043;-71
2021/04/22 04:39:17;;;;;;;27.65;16.33;;;;;;;10.09;72.63;100148.59;5096354;28;20023;-70
2021/04/22 04:41:43;;;;;;;26.40;16.88;;;;;;;9.90;73.58;100147.97;5114571;28;20120;-71
2021/04/22 04:44:10;;;;;;;23.52;15.57;;;;;;;9.87;74.35;100153.50;5096100;28;20491;-71
2021/04/22 04:46:36;;;;;;;25.13;16.40;;;;;;;9.88;73.95;100149.88;5114723;28;20336;-70
2021/04/22 04:49:04;;;;;;;25.77;16.10;;;;;;;9.98;73.88;100159.03;5096557;28;20063;-71
2021/04/22 04:51:30;;;;;;;24.45;15.45;;;;;;;9.96;73.65;100190.25;5114474;28;20047;-71
2021/04/22 04:53:56;;;;;;;29.30;19.73;;;;;;;9.98;74.34;100194.53;5098778;28;20424;-72
2021/04/22 04:56:21;;;;;;;29.05;18.60;;;;;;;10.08;73.43;100162.88;5093659;28;20151;-74
2021/04/22 04:58:48;;;;;;;26.67;18.30;;;;;;;10.33;72.54;100194.31;5094409;28;20032;-75
2021/04/22 05:01:15;;;;;;;25.25;17.70;;;;;;;10.43;72.13;100179.47;5093885;28;20560;-69
2021/04/22 05:03:40;;;;;;;26.80;16.75;;;;;;;10.39;71.42;100147.72;5094181;28;20099;-70
2021/04/22 05:06:06;;;;;;;24.27;16.52;;;;;;;10.65;71.31;100184.34;5094086;28;20116;-70
2021/04/22 05:08:32;;;;;;;24.17;16.33;;;;;;;10.77;71.25;100188.91;5076088;28;20458;-77
2021/04/22 05:10:59;;;;;;;26.50;15.75;;;;;;;10.83;70.63;100177.88;5094163;28;20028;-71
2021/04/22 05:13:24;;;;;;;22.88;15.18;;;;;;;10.89;70.15;100188.13;5083635;28;20092;-75
2021/04/22 05:15:50;;;;;;;24.20;15.38;;;;;;;10.92;70.18;100191.59;5084996;28;674737;-74
2021/04/22 05:18:15;;;;;;;26.25;16.58;;;;;;;11.04;69.74;100190.81;5085211;28;20044;-76
2021/04/22 05:20:40;;;;;;;28.85;15.50;;;;;;;10.94;69.24;100184.34;5104245;28;20039;-74
2021/04/22 05:23:06;;;;;;;22.17;14.57;;;;;;;11.09;69.36;100194.03;5084792;28;20024;-76
2021/04/22 05:25:31;;;;;;;23.80;15.40;;;;;;;11.02;68.18;100142.03;5073813;28;20036;-74
2021/04/22 05:27:57;;;;;;;21.13;13.70;;;;;;;11.16;68.94;100166.00;5079023;28;20527;-74
2021/04/22 05:30:23;;;;;;;20.33;13.75;;;;;;;11.62;67.54;100195.94;5098360;28;20046;-71
2021/04/22 05:32:49;;;;;;;25.60;14.43;;;;;;;11.95;66.40;100195.56;5097701;28;20116;-78
2021/04/22 05:35:16;;;;;;;21.27;14.02;;;;;;;12.15;65.39;100174.63;5100380;28;20034;-75
2021/04/22 05:37:42;;;;;;;21.50;13.75;;;;;;;12.33;64.53;100195.63;5104087;28;20036;-73
2021/04/22 05:40:08;;;;;;;19.55;12.98;;;;;;;12.35;64.46;100192.84;5099566;28;20054;-71
2021/04/22 05:42:34;;;;;;;24.90;14.00;;;;;;;12.30;63.99;100160.25;5083463;28;20447;-77
2021/04/22 05:44:59;;;;;;;21.15;12.75;;;;;;;12.85;62.87;100185.84;5093927;28;20028;-72
2021/04/22 05:47:25;;;;;;;21.33;12.07;;;;;;;13.02;62.11;100180.13;5075503;28;20051;-71
2021/04/22 05:49:50;;;;;;;21.20;13.25;;;;;;;12.70;63.12;100184.22;5094619;28;20491;-70
2021/04/22 05:52:16;;;;;;;23.42;14.52;;;;;;;12.86;62.42;100179.50;5093704;28;20032;-74
2021/04/22 05:54:41;;;;;;;24.85;14.45;;;;;;;13.73;60.27;100184.78;5062497;28;20036;-69
2021/04/22 05:57:07;;;;;;;19.77;13.57;;;;;;;13.77;59.82;100163.09;5073424;28;20029;-71
2021/04/22 05:59:32;;;;;;;21.45;14.13;;;;;;;14.08;59.11;100183.09;5072556;28;20029;-69
2021/04/22 06:01:57;;;;;;;21.98;13.38;;;;;;;14.46;57.98;100173.00;5073120;28;20064;-69
2021/04/22 06:04:23;;;;;;;19.52;12.82;;;;;;;14.56;57.39;100175.81;5055144;28;20041;-76
2021/04/22 06:06:48;;;;;;;21.27;12.30;;;;;;;14.24;58.08;100179.13;5072815;28;20040;-72
2021/04/22 06:09:14;;;;;;;20.80;13.18;;;;;;;14.22;58.28;100172.19;5072751;28;20040;-71
2021/04/22 06:11:41;;;;;;;20.90;12.80;;;;;;;14.11;59.01;100181.06;5054521;28;20086;-70
2021/04/22 06:14:06;;;;;;;20.40;13.27;;;;;;;13.87;59.41;100174.84;5055338;28;20124;-70
2021/04/22 06:16:32;;;;;;;21.27;12.98;;;;;;;13.95;59.35;100177.81;5058877;28;20136;-71
2021/04/22 06:18:57;;;;;;;25.40;12.93;;;;;;;14.22;58.62;100167.66;5076114;28;20040;-70
2021/04/22 06:21:23;;;;;;;19.15;13.13;;;;;;;14.69;57.17;100152.44;5074855;28;20036;-71
2021/04/22 06:23:48;;;;;;;19.50;12.65;;;;;;;14.63;58.11;100173.50;5083339;28;20035;-72
2021/04/22 06:26:14;;;;;;;21.50;12.93;;;;;;;14.83;56.33;100183.53;5072741;28;20032;-70
2021/04/22 06:28:39;;;;;;;19.05;12.48;;;;;;;14.65;56.93;100168.88;5072219;28;20060;-73
2021/04/22 06:31:05;;;;;;;18.05;12.40;;;;;;;14.98;55.99;100168.06;5072859;28;20420;-69
2021/04/22 06:33:31;;;;;;;17.00;11.68;;;;;;;14.80;56.19;100187.34;5072162;28;20453;-69
2021/04/22 06:35:57;;;;;;;16.30;12.50;;;;;;;14.68;56.94;100177.56;5055004;28;20128;-71
2021/04/22 06:38:22;;;;;;;20.15;12.77;;;;;;;14.54;56.94;100137.50;5054747;28;20029;-71
2021/04/22 06:40:48;;;;;;;21.77;13.68;;;;;;;14.93;56.11;100189.91;5072348;28;20037;-70
2021/04/22 06:43:14;;;;;;;22.67;13.70;;;;;;;15.60;55.47;100186.28;5073341;28;20035;-69
2021/04/22 06:45:42;;;;;;;18.70;13.35;;;;;;;15.90;53.62;100186.47;5055680;28;20040;-70
2021/04/22 06:48:12;;;;;;;19.70;12.95;;;;;;;16.25;53.03;100190.75;5072429;28;20028;-69
2021/04/22 06:50:38;;;;;;;20.10;12.73;;;;;;;16.36;51.72;100152.13;5054603;28;20040;-70
2021/04/22 06:53:03;;;;;;;20.58;12.90;;;;;;;16.48;51.76;100178.84;5054786;28;20036;-71
2021/04/22 06:55:29;;;;;;;19.25;13.68;;;;;;;16.36;52.15;100190.69;5053952;28;20040;-70
2021/04/22 06:57:55;;;;;;;21.30;13.82;;;;;;;15.73;54.02;100149.41;5071874;28;20043;-70
2021/04/22 07:00:22;;;;;;;21.30;13.35;;;;;;;15.61;54.19;100202.31;5054565;28;20041;-70
2021/04/22 07:02:49;;;;;;;20.92;13.88;;;;;;;15.38;55.63;100188.06;5072132;28;20032;-71
2021/04/22 07:05:15;;;;;;;17.23;13.50;;;;;;;15.12;55.67;100198.19;5077538;28;20103;-71
2021/04/22 07:07:41;;;;;;;18.10;12.43;;;;;;;14.92;55.82;100200.75;5091101;28;20032;-71
2021/04/22 07:10:08;;;;;;;17.85;12.10;;;;;;;15.09;56.83;100200.28;5092466;28;20105;-70
2021/04/22 07:12:34;;;;;;;16.10;12.25;;;;;;;15.16;55.97;100186.25;5091372;28;20032;-71
2021/04/22 07:15:00;;;;;;;16.60;12.13;;;;;;;14.95;56.20;100179.03;5092453;28;20080;-70
2021/04/22 07:17:26;;;;;;;17.73;11.98;;;;;;;15.09;56.81;100202.97;5074108;28;20070;-71
2021/04/22 07:19:54;;;;;;;20.10;12.45;;;;;;;15.03;56.62;100190.03;5091917;28;20039;-71
2021/04/22 07:22:20;;;;;;;16.67;12.07;;;;;;;15.00;56.63;100198.34;5092099;28;20141;-70
2021/04/22 07:24:45;;;;;;;17.88;12.50;;;;;;;15.18;56.61;100205.78;5060627;28;20078;-71
2021/04/22 07:27:11;;;;;;;18.77;12.35;;;;;;;15.04;56.02;100176.47;5072296;28;20029;-70
2021/04/22 07:29:40;;;;;;;18.80;11.90;;;;;;;15.34;56.02;100217.97;5053373;28;20029;-72
2021/04/22 07:32:06;;;;;;;18.90;11.80;;;;;;;15.26;56.14;100204.31;5071474;28;20028;-75
2021/04/22 07:34:31;;;;;;;19.85;12.32;;;;;;;15.30;56.13;100203.94;5091138;28;20044;-79
2021/04/22 07:36:56;;;;;;;17.15;12.07;;;;;;;15.17;56.15;100189.78;5073718;28;20089;-74
2021/04/22 07:39:22;;;;;;;16.30;11.40;;;;;;;15.14;55.85;100185.50;5091554;28;20497;-74
2021/04/22 07:41:48;;;;;;;16.42;11.70;;;;;;;15.08;55.50;100187.84;5073411;28;20043;-75
2021/04/22 07:44:13;;;;;;;16.75;11.55;;;;;;;15.03;55.77;100150.59;5053392;28;20043;-75
2021/04/22 07:46:39;;;;;;;18.77;11.30;;;;;;;15.36;54.89;100208.81;5071742;28;20043;-76
2021/04/22 07:49:06;;;;;;;18.20;11.90;;;;;;;15.00;54.80;100156.22;5091347;28;20388;-75
2021/04/22 07:51:32;;;;;;;20.33;11.32;;;;;;;15.20;55.35;100189.53;5073183;28;20118;-78
2021/04/22 07:53:58;;;;;;;14.77;10.85;;;;;;;15.07;55.64;100175.38;5084639;28;20543;-73
2021/04/22 07:56:23;;;;;;;15.88;11.57;;;;;;;15.30;56.72;100211.16;5068465;28;20048;-71
2021/04/22 07:58:49;;;;;;;17.17;11.45;;;;;;;15.37;55.37;100213.22;5073122;28;20086;-75
2021/04/22 08:01:15;;;;;;;19.00;12.00;;;;;;;15.58;55.31;100199.00;5073760;28;20500;-68
2021/04/22 08:03:40;;;;;;;18.15;11.18;;;;;;;15.85;54.71;100217.44;5073631;28;20153;-73
2021/04/22 08:06:05;;;;;;;15.30;10.88;;;;;;;15.70;53.75;100149.63;5091543;28;20423;-73
2021/04/22 08:08:31;;;;;;;15.13;10.27;;;;;;;16.13;53.65;100191.78;5074161;28;20032;-70
2021/04/22 08:10:57;;;;;;;14.07;10.38;;;;;;;16.38;52.15;100206.69;5095023;28;20032;-72
2021/04/22 08:13:24;;;;;;;18.17;10.77;;;;;;;16.49;51.37;100206.63;5060547;28;20430;-70
2021/04/22 08:15:52;;;;;;;15.23;10.63;;;;;;;16.40;52.31;100194.81;5094661;28;20142;-69
2021/04/22 08:18:18;;;;;;;17.67;12.27;;;;;;;16.69;51.98;100197.72;5076973;28;20028;-72
2021/04/22 08:20:45;;;;;;;17.65;11.45;;;;;;;16.83;51.82;100199.22;5094736;28;20024;-68
2021/04/22 08:23:11;;;;;;;15.45;11.38;;;;;;;17.01;51.44;100203.00;5095036;28;20031;-77
2021/04/22 08:25:50;;;;;;;17.00;11.00;;;;;;;17.05;50.31;100195.50;5065200;28;20377;-72
2021/04/22 08:28:17;;;;;;;16.35;11.60;;;;;;;16.82;51.15;100200.22;5076922;28;20036;-73
2021/04/22 08:30:51;;;;;;;16.50;11.00;;;;;;;16.61;51.40;100202.91;5076016;28;20044;-69
2021/04/22 08:33:20;;;;;;;15.90;11.00;;;;;;;16.49;51.24;100159.00;5095674;28;20138;-70
2021/04/22 08:35:46;;;;;;;15.73;10.38;;;;;;;16.78;51.63;100201.47;5095030;28;20032;-71
2021/04/22 08:38:12;;;;;;;18.23;11.35;;;;;;;16.92;51.30;100189.50;5094497;28;20036;-72
2021/04/22 08:40:38;;;;;;;17.55;11.18;;;;;;;16.90;51.12;100162.69;5101347;28;20030;-72
2021/04/22 08:43:05;;;;;;;18.33;11.20;;;;;;;17.16;50.16;100195.41;5069294;28;20028;-72
2021/04/22 08:45:31;;;;;;;18.85;11.77;;;;;;;17.07;49.73;100175.50;5096397;28;20047;-72
2021/04/22 08:47:57;;;;;;;14.98;10.90;;;;;;;16.80;49.30;100142.94;5076515;28;20032;-73
2021/04/22 08:50:26;;;;;;;18.90;11.65;;;;;;;16.83;50.72;100146.22;5077163;28;20388;-71
2021/04/22 08:52:55;;;;;;;16.40;11.07;;;;;;;17.23;50.05;100193.03;5076201;28;20039;-70
2021/04/22 08:55:24;;;;;;;15.45;10.57;;;;;;;17.44;50.29;100193.81;5082426;28;20484;-71
2021/04/22 08:57:49;;;;;;;16.40;10.85;;;;;;;17.64;49.56;100189.31;5092996;28;20040;-69
2021/04/22 09:00:21;;;;;;;19.95;10.93;;;;;;;17.62;49.00;100185.91;5059557;28;20085;-70
2021/04/22 09:02:46;;;;;;;16.25;11.20;;;;;;;17.79;48.78;100195.19;5094117;28;20024;-71
2021/04/22 09:05:14;;;;;;;15.65;11.40;;;;;;;17.59;48.91;100165.47;5076121;28;20036;-74
2021/04/22 09:07:39;;;;;;;16.77;10.98;;;;;;;17.62;48.55;100173.25;5075552;28;20035;-71
2021/04/22 09:10:07;;;;;;;18.33;11.23;;;;;;;17.76;48.98;100190.06;5056010;28;20032;-69
2021/04/22 09:12:33;;;;;;;16.02;11.48;;;;;;;17.84;48.38;100182.97;5089840;28;20384;-74
2021/04/22 09:15:11;;;;;;;18.23;12.15;;;;;;;17.94;48.25;100174.88;5058797;28;20036;-77
2021/04/22 09:17:36;;;;;;;15.27;10.93;;;;;;;17.96;48.00;100178.31;5075390;28;20128;-74
2021/04/22 09:20:04;;;;;;;16.30;10.82;;;;;;;18.01;47.50;100178.75;5074775;28;20422;-69
2021/04/22 09:22:38;;;;;;;15.68;10.60;;;;;;;18.20;47.57;100170.63;5075299;28;20040;-71
2021/04/22 09:25:15;;;;;;;15.75;11.27;;;;;;;18.50;46.71;100174.16;5077289;28;20024;-71
2021/04/22 09:27:42;;;;;;;17.92;11.20;;;;;;;18.39;46.76;100147.31;5093639;28;20032;-72
2021/04/22 09:30:09;;;;;;;17.95;11.23;;;;;;;18.71;45.73;100172.13;5093436;28;20533;-71
2021/04/22 09:32:36;;;;;;;17.92;11.70;;;;;;;18.72;46.40;100173.00;5093545;28;20040;-72
2021/04/22 09:35:11;;;;;;;17.33;11.68;;;;;;;18.67;46.86;100167.19;5075118;28;20036;-72
2021/04/22 09:37:50;;;;;;;18.40;11.93;;;;;;;18.58;46.89;100158.94;5092883;28;20423;-72
2021/04/22 09:40:31;;;;;;;17.48;12.18;;;;;;;18.77;48.41;100168.88;5093704;28;20115;-71
2021/04/22 09:42:59;;;;;;;17.73;12.55;;;;;;;19.06;46.94;100162.50;5075135;28;20028;-70
2021/04/22 09:45:28;;;;;;;16.50;11.68;;;;;;;19.06;46.00;100146.28;5093491;28;20061;-73
2021/04/22 09:47:55;;;;;;;18.83;11.40;;;;;;;19.34;46.72;100134.47;5092941;28;20384;-75
2021/04/22 09:50:25;;;;;;;17.63;12.32;;;;;;;19.40;45.39;100139.28;5075617;28;20028;-74
2021/04/22 09:52:54;;;;;;;16.58;10.85;;;;;;;19.42;44.28;100153.50;5092531;28;20388;-75
2021/04/22 09:55:23;;;;;;;14.23;11.50;;;;;;;19.50;43.65;100146.50;5080935;28;20173;-74
2021/04/22 09:57:49;;;;;;;14.65;11.07;;;;;;;19.41;44.44;100146.41;5089930;28;20047;-75
2021/04/22 10:00:32;;;;;;;19.60;11.55;;;;;;;19.37;44.57;100117.94;5075117;28;20051;-75
2021/04/22 10:03:00;;;;;;;13.77;8.27;;;;;;;19.39;41.23;100137.56;5092453;28;20028;-71
2021/04/22 10:05:31;;;;;;;10.82;8.18;;;;;;;19.32;39.61;100086.97;5092405;28;20024;-73
2021/04/22 10:08:16;;;;;;;13.13;6.32;;;;;;;18.89;41.15;100115.47;5074416;28;20376;-72
2021/04/22 10:11:04;;;;;;;12.02;7.53;;;;;;;18.31;41.60;100110.22;5096577;28;20075;-71
2021/04/22 10:13:50;;;;;;;11.73;7.47;;;;;;;18.78;40.80;100131.88;5093219;28;20032;-70
2021/04/22 10:16:15;;;;;;;11.68;8.05;;;;;;;18.72;40.21;100106.31;5074603;28;20109;-72
2021/04/22 10:18:44;;;;;;;11.23;7.18;;;;;;;18.74;39.57;100080.00;5074270;28;20055;-73
2021/04/22 10:21:11;;;;;;;10.38;6.93;;;;;;;18.57;39.65;100119.41;5091619;28;20028;-70
2021/04/22 10:23:37;;;;;;;10.63;6.97;;;;;;;18.74;40.80;100125.94;5090041;28;20032;-73
2021/04/22 10:26:04;;;;;;;14.00;7.53;;;;;;;18.47;40.52;100121.28;5074722;28;20088;-74
2021/04/22 10:28:30;;;;;;;11.85;7.38;;;;;;;18.19;40.91;100069.06;5092715;28;20040;-69
2021/04/22 10:30:57;;;;;;;9.45;7.10;;;;;;;18.86;40.59;100118.50;5091967;28;20595;-73
2021/04/22 10:33:27;;;;;;;12.02;6.57;;;;;;;19.13;39.81;100107.69;5092533;28;20141;-74
2021/04/22 10:35:54;;;;;;;9.32;6.85;;;;;;;19.27;38.75;100105.47;5092171;28;20032;-71
2021/04/22 10:38:21;;;;;;;6.38;4.43;;;;;;;19.59;37.41;100088.75;5054232;28;20029;-75
2021/04/22 10:40:50;;;;;;;6.45;4.35;;;;;;;19.04;35.82;100096.94;5072021;28;20031;-69
2021/04/22 10:43:22;;;;;;;7.13;4.18;;;;;;;19.02;37.17;100086.28;5092353;28;20024;-76
2021/04/22 10:45:49;;;;;;;8.52;5.50;;;;;;;19.13;37.46;100079.81;5092193;28;20088;-72
2021/04/22 10:48:14;;;;;;;11.13;7.13;;;;;;;19.18;38.08;100085.59;5092348;28;20115;-74
2021/04/22 10:50:53;;;;;;;10.43;7.20;;;;;;;19.45;37.67;100080.16;5090631;28;20162;-72
2021/04/22 10:53:21;;;;;;;11.10;6.10;;;;;;;18.96;39.37;100086.00;5091162;28;20028;-71
2021/04/22 10:55:49;;;;;;;10.57;7.53;;;;;;;18.54;40.60;100079.19;5072335;28;20548;-75
2021/04/22 10:58:27;;;;;;;9.63;6.45;;;;;;;18.37;40.41;100092.59;5072423;28;20063;-73
2021/04/22 11:00:59;;;;;;;7.10;4.65;;;;;;;18.29;39.72;100093.31;5072198;28;20040;-73
2021/04/22 11:03:24;;;;;;;5.45;3.13;;;;;;;18.10;36.57;100080.72;5073289;28;20024;-72
2021/04/22 11:05:56;;;;;;;7.38;3.50;;;;;;;18.09;35.55;100075.47;5072913;28;20472;-73
2021/04/22 11:08:40;;;;;;;5.07;3.45;;;;;;;18.28;36.58;100110.53;5073186;28;20025;-73
2021/04/22 11:11:34;;;;;;;9.95;4.53;;;;;;;18.13;37.90;100099.31;5073523;28;20043;-72